createdAt,value
2022-12-31T00:00:29.645Z,14.93
2022-12-31T00:03:33.376Z,16.35
2022-12-31T00:06:36.317Z,14.55
2022-12-31T00:09:38.966Z,15.60
2022-12-31T00:12:41.370Z,14.02
2022-12-31T00:15:44.986Z,14.60
2022-12-31T00:18:52.588Z,14.70
2022-12-31T00:21:55.197Z,13.68
2022-12-31T00:24:57.503Z,13.05
2022-12-31T00:28:00.110Z,13.82
2022-12-31T00:31:17.190Z,12.13
2022-12-31T00:34:20.794Z,12.20
2022-12-31T00:37:23.105Z,12.88
2022-12-31T00:40:25.716Z,11.50
2022-12-31T00:43:28.065Z,12.63
2022-12-31T00:46:32.171Z,12.05
2022-12-31T00:49:34.491Z,12.82
2022-12-31T00:52:37.210Z,11.93
2022-12-31T00:55:39.520Z,12.68
2022-12-31T00:58:43.384Z,12.77
2022-12-31T01:01:45.966Z,12.20
2022-12-31T01:04:48.879Z,14.10
2022-12-31T01:07:51.154Z,12.80
2022-12-31T01:11:17.627Z,12.15
2022-12-31T01:14:20.696Z,12.88
2022-12-31T01:17:23.378Z,14.60
2022-12-31T01:20:25.654Z,14.82
2022-12-31T01:23:28.269Z,14.98
2022-12-31T01:26:31.982Z,15.68
2022-12-31T01:32:36.818Z,14.05
2022-12-31T01:35:39.986Z,15.00
2022-12-31T01:38:42.940Z,14.40
2022-12-31T01:41:47.949Z,14.75
2022-12-31T01:44:55.418Z,14.50
2022-12-31T01:48:00.187Z,15.48
2022-12-31T01:51:02.499Z,15.15
2022-12-31T01:54:08.735Z,14.68
2022-12-31T01:57:12.046Z,13.65
2022-12-31T02:00:15.597Z,13.65
2022-12-31T02:03:22.742Z,13.88
2022-12-31T02:06:35.113Z,13.40
2022-12-31T02:09:40.185Z,12.95
2022-12-31T02:12:42.607Z,13.85
2022-12-31T02:16:34.508Z,12.73
2022-12-31T02:20:14.086Z,12.85
2022-12-31T02:23:34.888Z,13.15
2022-12-31T02:26:52.150Z,13.75
2022-12-31T02:29:57.807Z,13.05
2022-12-31T02:33:19.286Z,13.05
2022-12-31T02:36:28.809Z,13.32
2022-12-31T02:39:32.266Z,13.07
2022-12-31T02:42:34.891Z,12.95
2022-12-31T02:45:43.189Z,12.32
2022-12-31T02:48:52.879Z,12.55
2022-12-31T02:52:29.536Z,13.48
2022-12-31T02:55:48.975Z,13.82
2022-12-31T02:59:27.073Z,14.18
2022-12-31T03:02:33.464Z,13.52
2022-12-31T03:05:41.622Z,13.95
2022-12-31T03:09:02.542Z,14.00
2022-12-31T03:12:26.873Z,14.98
2022-12-31T03:15:32.421Z,14.32
2022-12-31T03:18:54.734Z,14.82
2022-12-31T03:22:16.019Z,14.52
2022-12-31T03:25:35.043Z,15.60
2022-12-31T03:28:40.192Z,16.27
2022-12-31T03:31:42.569Z,14.68
2022-12-31T03:34:45.166Z,15.77
2022-12-31T03:37:49.378Z,16.42
2022-12-31T03:40:52.992Z,16.65
2022-12-31T03:43:55.292Z,15.77
2022-12-31T03:46:57.862Z,15.75
2022-12-31T03:50:00.230Z,15.77
2022-12-31T03:53:03.292Z,14.63
2022-12-31T03:56:05.884Z,14.77
2022-12-31T03:59:08.504Z,15.43
2022-12-31T04:02:11.207Z,15.25
2022-12-31T04:05:14.529Z,15.33
2022-12-31T04:08:16.916Z,15.55
2022-12-31T04:14:23.575Z,15.27
2022-12-31T04:17:28.893Z,16.15
2022-12-31T04:20:31.282Z,16.35
2022-12-31T04:23:33.950Z,17.00
2022-12-31T04:26:37.259Z,17.48
2022-12-31T04:29:40.115Z,16.00
2022-12-31T04:32:44.815Z,15.18
2022-12-31T04:35:47.497Z,17.17
2022-12-31T04:38:49.823Z,16.77
2022-12-31T04:41:53.148Z,17.58
2022-12-31T04:44:57.112Z,17.98
2022-12-31T04:47:59.754Z,16.45
2022-12-31T04:51:02.092Z,17.12
2022-12-31T04:54:05.335Z,16.75
2022-12-31T04:57:07.647Z,18.52
2022-12-31T05:00:10.894Z,18.17
2022-12-31T05:03:13.283Z,16.23
2022-12-31T05:06:18.654Z,17.92
2022-12-31T05:09:24.034Z,17.75
2022-12-31T05:12:26.745Z,17.00
2022-12-31T05:15:29.356Z,16.90
2022-12-31T05:18:33.022Z,16.42
2022-12-31T05:21:35.637Z,17.95
2022-12-31T05:24:38.353Z,16.35
2022-12-31T05:27:40.753Z,16.20
2022-12-31T05:30:44.680Z,18.17
2022-12-31T05:33:46.990Z,19.25
2022-12-31T05:36:49.546Z,17.45
2022-12-31T05:39:52.280Z,18.55
2022-12-31T05:42:55.215Z,19.02
2022-12-31T05:46:00.024Z,18.55
2022-12-31T05:49:02.658Z,19.65
2022-12-31T05:52:08.301Z,19.27
2022-12-31T05:55:12.330Z,18.85
2022-12-31T05:58:16.296Z,19.23
2022-12-31T06:01:19.166Z,18.08
2022-12-31T06:04:22.000Z,18.60
2022-12-31T06:07:24.349Z,19.85
2022-12-31T06:10:27.047Z,19.30
2022-12-31T06:13:29.547Z,20.45
2022-12-31T06:16:32.145Z,18.02
2022-12-31T06:19:35.551Z,20.27
2022-12-31T06:22:38.170Z,19.65
2022-12-31T06:25:40.577Z,17.52
2022-12-31T06:28:43.278Z,17.95
2022-12-31T06:31:45.704Z,17.73
2022-12-31T06:34:48.322Z,18.20
2022-12-31T06:37:52.274Z,18.58
2022-12-31T06:40:54.977Z,17.75
2022-12-31T06:43:57.511Z,17.08
2022-12-31T06:50:03.684Z,16.10
2022-12-31T06:53:06.940Z,16.75
2022-12-31T06:56:20.834Z,16.55
2022-12-31T06:59:27.424Z,16.67
2022-12-31T07:02:51.510Z,17.15
2022-12-31T07:06:13.709Z,16.65
2022-12-31T07:09:27.809Z,17.55
2022-12-31T07:12:54.853Z,18.08
2022-12-31T07:16:16.621Z,16.58
2022-12-31T07:19:37.345Z,16.55
2022-12-31T07:22:40.040Z,18.00
2022-12-31T07:25:54.224Z,18.17
2022-12-31T07:29:15.431Z,19.05
2022-12-31T07:32:39.864Z,17.65
2022-12-31T07:35:56.306Z,18.85
2022-12-31T07:39:11.839Z,18.52
2022-12-31T07:42:14.085Z,20.58
2022-12-31T07:45:37.821Z,18.50
2022-12-31T07:48:40.356Z,18.75
2022-12-31T07:51:43.711Z,18.48
2022-12-31T07:54:46.662Z,21.92
2022-12-31T07:58:01.775Z,19.40
2022-12-31T08:01:05.531Z,17.67
2022-12-31T08:04:48.158Z,17.40
2022-12-31T08:07:59.377Z,18.80
2022-12-31T08:11:39.888Z,18.40
2022-12-31T08:14:48.655Z,17.30
2022-12-31T08:17:51.520Z,17.52
2022-12-31T08:21:35.070Z,18.92
2022-12-31T08:24:51.765Z,17.92
2022-12-31T08:28:12.422Z,18.12
2022-12-31T08:31:28.480Z,19.25
2022-12-31T08:34:52.176Z,20.10
2022-12-31T08:38:16.385Z,18.45
2022-12-31T08:41:43.452Z,19.02
2022-12-31T08:44:58.237Z,19.52
2022-12-31T08:48:02.965Z,18.87
2022-12-31T08:51:06.939Z,21.20
2022-12-31T08:54:11.812Z,20.65
2022-12-31T08:57:34.685Z,29.52
2022-12-31T09:00:40.693Z,23.02
2022-12-31T09:04:08.912Z,22.92
2022-12-31T09:07:14.917Z,23.48
2022-12-31T09:10:20.366Z,22.25
2022-12-31T09:14:01.410Z,22.15
2022-12-31T09:17:32.815Z,22.20
2022-12-31T09:20:44.734Z,21.02
2022-12-31T09:23:50.477Z,22.37
2022-12-31T09:27:25.443Z,22.92
2022-12-31T09:30:48.725Z,22.00
2022-12-31T09:33:57.977Z,22.67
2022-12-31T09:37:06.881Z,21.92
2022-12-31T09:40:43.198Z,23.80
2022-12-31T09:44:07.444Z,21.65
2022-12-31T09:47:34.421Z,23.73
2022-12-31T09:50:59.425Z,22.13
2022-12-31T09:54:22.622Z,21.17
2022-12-31T09:57:48.886Z,22.93
2022-12-31T10:01:02.237Z,21.73
2022-12-31T10:04:30.706Z,22.42
2022-12-31T10:07:53.600Z,21.10
2022-12-31T10:11:05.322Z,21.02
2022-12-31T10:14:47.136Z,21.27
2022-12-31T10:18:23.360Z,21.33
2022-12-31T10:21:52.369Z,20.42
2022-12-31T10:25:16.627Z,21.83
2022-12-31T10:28:40.959Z,22.92
2022-12-31T10:32:13.216Z,20.65
2022-12-31T10:35:40.246Z,21.90
2022-12-31T10:39:24.825Z,20.88
2022-12-31T10:43:19.919Z,21.30
2022-12-31T10:46:53.696Z,22.65
2022-12-31T10:50:22.354Z,21.75
2022-12-31T10:53:57.033Z,22.27
2022-12-31T10:57:10.137Z,21.55
2022-12-31T11:00:46.190Z,22.58
2022-12-31T11:04:38.436Z,23.02
2022-12-31T11:07:43.843Z,24.83
2022-12-31T11:10:56.028Z,22.98
2022-12-31T11:14:11.116Z,24.70
2022-12-31T11:17:37.878Z,25.25
2022-12-31T11:21:06.965Z,24.35
2022-12-31T11:24:38.616Z,24.05
2022-12-31T11:27:53.511Z,25.35
2022-12-31T11:31:41.133Z,24.23
2022-12-31T11:35:24.599Z,24.55
2022-12-31T11:38:39.978Z,23.27
2022-12-31T11:41:54.712Z,24.50
2022-12-31T11:45:14.937Z,25.02
2022-12-31T11:48:39.517Z,23.83
2022-12-31T11:52:24.831Z,23.65
2022-12-31T11:55:38.871Z,23.52
2022-12-31T11:58:47.850Z,23.65
2022-12-31T12:02:00.912Z,23.27
2022-12-31T12:05:11.146Z,22.58
2022-12-31T12:08:19.638Z,23.95
2022-12-31T12:11:29.269Z,24.50
2022-12-31T12:14:36.269Z,24.20
2022-12-31T12:17:39.346Z,23.27
2022-12-31T12:20:46.450Z,23.55
2022-12-31T12:23:57.995Z,23.65
2022-12-31T12:27:00.397Z,23.38
2022-12-31T12:30:29.201Z,23.85
2022-12-31T12:33:44.660Z,23.23
2022-12-31T12:36:48.211Z,24.98
2022-12-31T12:40:02.251Z,24.02
2022-12-31T12:43:06.654Z,24.52
2022-12-31T12:46:19.813Z,25.52
2022-12-31T12:49:29.167Z,23.87
2022-12-31T12:52:59.226Z,26.00
2022-12-31T12:56:39.066Z,25.77
2022-12-31T13:00:07.687Z,25.55
2022-12-31T13:03:20.155Z,25.75
2022-12-31T13:06:31.416Z,25.88
2022-12-31T13:10:06.463Z,25.88
2022-12-31T13:13:34.125Z,24.63
2022-12-31T13:16:59.852Z,23.95
2022-12-31T13:20:15.332Z,24.23
2022-12-31T13:23:44.051Z,25.48
2022-12-31T13:27:05.496Z,24.70
2022-12-31T13:30:19.215Z,24.10
2022-12-31T13:33:55.816Z,24.87
2022-12-31T13:37:06.119Z,24.87
2022-12-31T13:40:27.142Z,25.12
2022-12-31T13:43:48.813Z,23.75
2022-12-31T13:47:40.896Z,24.23
2022-12-31T13:50:51.881Z,24.70
2022-12-31T13:54:10.731Z,23.80
2022-12-31T13:57:43.073Z,25.52
2022-12-31T14:00:53.134Z,25.00
2022-12-31T14:04:01.710Z,25.10
2022-12-31T14:07:16.004Z,22.90
2022-12-31T14:10:30.654Z,24.90
2022-12-31T14:17:01.904Z,23.90
2022-12-31T14:20:35.095Z,24.00
2022-12-31T14:24:13.798Z,23.20
2022-12-31T14:27:24.004Z,22.23
2022-12-31T14:30:32.358Z,23.52
2022-12-31T14:34:10.886Z,23.25
2022-12-31T14:37:31.416Z,22.87
2022-12-31T14:40:58.379Z,21.67
2022-12-31T14:44:44.941Z,23.20
2022-12-31T14:48:20.061Z,21.62
2022-12-31T14:54:38.451Z,21.48
2022-12-31T14:58:27.129Z,21.45
2022-12-31T15:01:14.854Z,20.67
2022-12-31T15:04:34.027Z,20.95
2022-12-31T15:07:48.097Z,20.37
2022-12-31T15:11:11.859Z,21.60
2022-12-31T15:14:37.455Z,21.30
2022-12-31T15:17:47.247Z,21.83
2022-12-31T15:21:13.945Z,20.52
2022-12-31T15:24:27.819Z,21.30
2022-12-31T15:27:33.143Z,20.65
2022-12-31T15:30:45.207Z,21.00
2022-12-31T15:34:05.693Z,22.33
2022-12-31T15:37:35.395Z,20.80
2022-12-31T15:40:46.422Z,20.77
2022-12-31T15:44:06.581Z,20.67
2022-12-31T15:47:36.736Z,20.10
2022-12-31T15:50:39.753Z,19.12
2022-12-31T15:53:47.025Z,18.80
2022-12-31T15:56:50.205Z,18.60
2022-12-31T15:59:59.373Z,19.33
2022-12-31T16:03:02.548Z,20.58
2022-12-31T16:06:15.941Z,20.05
2022-12-31T16:09:27.902Z,19.58
2022-12-31T16:12:40.776Z,19.95
2022-12-31T16:15:52.020Z,21.00
2022-12-31T16:18:56.238Z,20.42
2022-12-31T16:22:14.081Z,20.23
2022-12-31T16:25:36.557Z,20.27
2022-12-31T16:28:38.912Z,21.52
2022-12-31T16:31:44.583Z,20.62
2022-12-31T16:34:46.974Z,21.02
2022-12-31T16:38:19.049Z,20.17
2022-12-31T16:41:22.247Z,20.12
2022-12-31T16:44:29.677Z,21.05
2022-12-31T16:47:36.045Z,21.90
2022-12-31T16:50:39.041Z,20.52
2022-12-31T16:53:42.221Z,20.88
2022-12-31T16:56:45.103Z,21.98
2022-12-31T16:59:56.213Z,22.27
2022-12-31T17:03:18.024Z,21.70
2022-12-31T17:06:21.658Z,20.83
2022-12-31T17:09:33.574Z,21.90
2022-12-31T17:13:25.641Z,22.48
2022-12-31T17:16:08.913Z,21.40
2022-12-31T17:19:25.545Z,23.98
2022-12-31T17:22:40.490Z,23.00
2022-12-31T17:25:42.897Z,22.60
2022-12-31T17:28:49.326Z,22.85
2022-12-31T17:32:36.589Z,22.45
2022-12-31T17:35:43.915Z,22.25
2022-12-31T17:38:46.422Z,24.80
2022-12-31T17:41:52.770Z,24.20
2022-12-31T17:44:59.644Z,24.10
2022-12-31T17:48:02.807Z,23.40
2022-12-31T17:51:05.439Z,24.30
2022-12-31T17:54:16.027Z,25.80
2022-12-31T17:57:26.138Z,26.80
2022-12-31T18:00:28.897Z,25.25
2022-12-31T18:03:31.616Z,25.90
2022-12-31T18:06:33.906Z,25.15
2022-12-31T18:09:36.537Z,24.55
2022-12-31T18:12:39.591Z,24.10
2022-12-31T18:15:42.266Z,25.83
2022-12-31T18:18:45.448Z,24.83
2022-12-31T18:21:48.267Z,25.37
2022-12-31T18:24:54.391Z,24.45
2022-12-31T18:27:57.495Z,24.60
2022-12-31T18:31:00.109Z,25.85
2022-12-31T18:34:09.289Z,25.73
2022-12-31T18:37:21.689Z,23.75
2022-12-31T18:40:25.528Z,25.75
2022-12-31T18:43:27.969Z,24.47
2022-12-31T18:46:30.845Z,28.38
2022-12-31T18:49:41.377Z,28.05
2022-12-31T18:52:44.271Z,26.95
2022-12-31T18:55:55.524Z,28.60
2022-12-31T18:58:59.791Z,29.30
2022-12-31T19:05:26.402Z,30.15
2022-12-31T19:08:28.790Z,31.77
2022-12-31T19:11:33.050Z,31.08
2022-12-31T19:14:35.629Z,31.95
2022-12-31T19:17:38.287Z,32.83
2022-12-31T19:20:42.011Z,33.35
2022-12-31T19:26:47.813Z,35.00
2022-12-31T19:29:50.480Z,36.50
2022-12-31T19:32:53.249Z,36.05
2022-12-31T19:35:55.880Z,37.15
2022-12-31T19:38:58.282Z,40.38
2022-12-31T19:42:00.946Z,41.58
2022-12-31T19:45:03.718Z,40.05
2022-12-31T19:48:06.480Z,48.73
2022-12-31T19:51:12.858Z,61.30
2022-12-31T19:54:17.931Z,64.12
2022-12-31T19:57:22.445Z,60.70
2022-12-31T20:00:25.198Z,57.65
2022-12-31T20:03:28.222Z,52.62
2022-12-31T20:06:31.274Z,54.60
2022-12-31T20:09:33.898Z,54.67
2022-12-31T20:12:42.223Z,53.85
2022-12-31T20:15:47.905Z,52.70
2022-12-31T20:18:50.782Z,53.87
2022-12-31T20:21:53.645Z,55.33
2022-12-31T20:24:56.253Z,57.20
2022-12-31T20:27:58.882Z,57.35
2022-12-31T20:31:08.961Z,56.45
2022-12-31T20:34:11.825Z,55.45
2022-12-31T20:37:14.165Z,53.38
2022-12-31T20:40:17.202Z,53.97
2022-12-31T20:43:19.532Z,54.17
2022-12-31T20:46:24.821Z,51.75
2022-12-31T20:50:00.775Z,52.78
2022-12-31T20:52:50.076Z,51.25
2022-12-31T20:55:52.432Z,48.87
2022-12-31T20:58:55.359Z,47.20
2022-12-31T21:02:20.980Z,46.50
2022-12-31T21:05:20.483Z,48.17
2022-12-31T21:08:23.094Z,50.20
2022-12-31T21:11:45.219Z,57.60
2022-12-31T21:14:48.411Z,56.50
2022-12-31T21:17:54.809Z,60.08
2022-12-31T21:21:00.610Z,59.10
2022-12-31T21:24:03.554Z,57.75
2022-12-31T21:27:06.630Z,59.92
2022-12-31T21:30:19.541Z,57.35
2022-12-31T21:33:22.346Z,56.22
2022-12-31T21:36:25.299Z,52.40
2022-12-31T21:39:27.775Z,50.42
2022-12-31T21:42:30.397Z,47.17
2022-12-31T21:45:32.941Z,47.05
2022-12-31T21:48:35.602Z,46.00
2022-12-31T21:51:57.971Z,46.13
2022-12-31T21:55:21.082Z,44.30
2022-12-31T21:58:26.463Z,44.85
2022-12-31T22:01:48.968Z,42.97
2022-12-31T22:05:17.369Z,42.72
2022-12-31T22:08:14.137Z,41.37
2022-12-31T22:11:18.330Z,40.67
2022-12-31T22:14:20.698Z,40.25
2022-12-31T22:17:23.412Z,39.65
2022-12-31T22:20:27.498Z,39.13
2022-12-31T22:23:32.246Z,40.70
2022-12-31T22:26:34.786Z,39.00
2022-12-31T22:29:37.446Z,39.40
2022-12-31T22:32:39.786Z,40.75
2022-12-31T22:35:42.512Z,45.67
2022-12-31T22:38:46.115Z,53.15
2022-12-31T22:41:48.751Z,54.20
2022-12-31T22:44:51.099Z,63.33
2022-12-31T22:47:53.768Z,89.87
2022-12-31T22:50:57.161Z,112.68
2022-12-31T22:53:59.797Z,123.15
2022-12-31T22:57:02.128Z,129.52
2022-12-31T23:00:09.979Z,129.87
2022-12-31T23:03:12.861Z,110.57
2022-12-31T23:06:16.467Z,95.50
2022-12-31T23:09:37.540Z,90.05
2022-12-31T23:12:40.137Z,77.53
2022-12-31T23:16:03.537Z,92.20
2022-12-31T23:19:24.962Z,118.57
2022-12-31T23:22:45.478Z,111.22
2022-12-31T23:25:50.552Z,107.40
2022-12-31T23:28:53.525Z,107.80
2022-12-31T23:31:59.961Z,121.55
2022-12-31T23:35:09.378Z,113.10
2022-12-31T23:38:13.727Z,106.68
2022-12-31T23:41:19.840Z,100.05
2022-12-31T23:44:22.453Z,104.05
2022-12-31T23:47:25.003Z,99.20
2022-12-31T23:50:27.736Z,79.95
2022-12-31T23:53:33.177Z,75.90
2022-12-31T23:56:35.967Z,66.43
2022-12-31T23:59:38.308Z,66.55
